Time;durP1;ratioP1;P1;durP2;ratioP2;P2;SDS_P1;SDS_P2;PMS_P1;PMS_P2;Temp;Humidity;BMP_temperature;BMP_pressure;BME280_temperature;BME280_humidity;BME280_pressure;Samples;Min_cycle;Max_cycle;Signal;HPM_P1;HPM_P2
2021/09/11 00:00:51;;;;;;;13.85;6.35;;;409.90;2355.20;;;;;;5014921;28;20029;-79
2021/09/11 00:03:17;;;;;;;11.40;6.32;;;409.80;2355.20;;;;;;5015114;28;20026;-79
2021/09/11 00:05:43;;;;;;;15.27;7.65;;;409.90;2355.20;;;;;;5014517;28;20187;-78
2021/09/11 00:08:08;;;;;;;13.55;6.90;;;409.80;2355.20;;;;;;5014836;28;20049;-79
2021/09/11 00:10:36;;;;;;;10.75;6.18;;;384.90;2329.60;;;;;;5014915;28;20474;-81
2021/09/11 00:13:03;;;;;;;15.52;7.00;;;384.80;2329.60;;;;;;5014537;28;20022;-80
2021/09/11 00:15:32;;;;;;;10.02;6.10;;;384.70;2329.60;;;;;;5014792;28;20390;-78
2021/09/11 00:18:02;;;;;;;15.82;6.50;;;384.90;2329.60;;;;;;5014489;28;20116;-78
2021/09/11 00:20:29;;;;;;;11.30;5.80;;;409.60;2355.20;;;;;;5015226;28;20065;-78
2021/09/11 00:22:59;;;;;;;9.48;5.15;;;384.80;2329.60;;;;;;5014503;28;20569;-78
2021/09/11 00:25:25;;;;;;;9.52;5.68;;;384.90;2329.60;;;;;;5014279;28;20025;-80
2021/09/11 00:27:51;;;;;;;10.65;5.40;;;384.80;2329.60;;;;;;5014738;28;20378;-80
2021/09/11 00:30:18;;;;;;;8.98;5.57;;;409.60;2355.20;;;;;;5014038;28;20054;-80
2021/09/11 00:32:44;;;;;;;10.52;5.75;;;409.60;2355.20;;;;;;5014072;28;20520;-78
2021/09/11 00:35:13;;;;;;;15.25;7.40;;;409.60;2355.20;;;;;;5014288;28;20148;-80
2021/09/11 00:37:39;;;;;;;15.98;7.20;;;384.90;2329.60;;;;;;5014296;28;20528;-79
2021/09/11 00:40:06;;;;;;;12.40;6.05;;;384.80;2329.60;;;;;;5013266;28;20038;-80
2021/09/11 00:42:32;;;;;;;15.52;6.35;;;384.70;2329.60;;;;;;5014130;28;20025;-79
2021/09/11 00:44:58;;;;;;;10.18;6.13;;;384.60;2329.60;;;;;;5014291;28;20121;-81
2021/09/11 00:47:24;;;;;;;9.85;5.80;;;384.60;2329.60;;;;;;5013883;28;20064;-79
2021/09/11 00:49:50;;;;;;;14.02;6.32;;;384.70;2329.60;;;;;;5015613;28;20488;-79
2021/09/11 00:52:16;;;;;;;12.48;6.22;;;384.70;2329.60;;;;;;5014142;28;20029;-79
2021/09/11 00:54:42;;;;;;;10.52;6.40;;;384.60;2329.60;;;;;;5014651;28;20029;-79
2021/09/11 00:57:09;;;;;;;14.38;6.65;;;384.80;2329.60;;;;;;5013810;28;20026;-78
2021/09/11 00:59:38;;;;;;;12.93;6.60;;;384.90;2329.60;;;;;;5013746;28;20049;-77
2021/09/11 01:02:04;;;;;;;13.90;5.82;;;384.90;2329.60;;;;;;5013447;28;20026;-79
2021/09/11 01:04:30;;;;;;;12.68;6.00;;;384.90;2329.60;;;;;;5013933;28;20067;-76
2021/09/11 01:06:57;;;;;;;12.52;6.22;;;409.60;2355.20;;;;;;5013275;28;20026;-80
2021/09/11 01:09:23;;;;;;;10.82;5.38;;;384.90;2329.60;;;;;;5013658;28;20045;-78
2021/09/11 01:11:51;;;;;;;10.80;5.97;;;409.60;2355.20;;;;;;5013566;28;20025;-82
2021/09/11 01:14:17;;;;;;;10.95;5.70;;;409.60;2355.20;;;;;;5013214;28;20060;-80
2021/09/11 01:16:43;;;;;;;9.68;5.63;;;409.60;2355.20;;;;;;5013628;28;20485;-78
2021/09/11 01:19:09;;;;;;;10.32;6.30;;;384.60;2329.60;;;;;;5013435;28;20033;-78
2021/09/11 01:21:35;;;;;;;9.45;6.20;;;384.90;2329.60;;;;;;5013324;28;20029;-79
2021/09/11 01:24:01;;;;;;;11.02;5.63;;;384.60;2329.60;;;;;;5013435;28;20021;-79
2021/09/11 01:26:27;;;;;;;9.05;5.60;;;384.20;2329.60;;;;;;5013417;28;20026;-77
2021/09/11 01:28:52;;;;;;;10.35;5.70;;;384.70;2329.60;;;;;;5013039;28;20026;-78
2021/09/11 01:31:18;;;;;;;7.70;4.57;;;384.70;2329.60;;;;;;5012974;28;20104;-79
2021/09/11 01:33:44;;;;;;;9.20;4.70;;;384.90;2329.60;;;;;;5013252;28;20432;-78
2021/09/11 01:36:10;;;;;;;13.43;4.75;;;409.60;2355.20;;;;;;5012944;28;20053;-78
2021/09/11 01:38:36;;;;;;;8.55;4.45;;;409.60;2355.20;;;;;;5013282;28;20026;-79
2021/09/11 01:41:02;;;;;;;7.30;4.97;;;409.60;2355.20;;;;;;5013300;28;20534;-77
2021/09/11 01:43:30;;;;;;;9.07;5.13;;;409.70;2355.20;;;;;;5014181;28;20080;-79
2021/09/11 01:45:59;;;;;;;10.10;4.53;;;409.60;2355.20;;;;;;5014246;28;20442;-76
2021/09/11 01:48:28;;;;;;;8.10;4.80;;;409.60;2355.20;;;;;;5017848;28;20056;-79
2021/09/11 01:50:54;;;;;;;10.43;5.22;;;384.90;2329.60;;;;;;5012749;28;20080;-77
2021/09/11 01:53:21;;;;;;;10.93;5.47;;;384.70;2329.60;;;;;;5012960;28;20387;-80
2021/09/11 01:55:47;;;;;;;9.90;5.45;;;384.50;2329.60;;;;;;5013035;28;20025;-80
2021/09/11 01:58:16;;;;;;;12.63;6.20;;;384.30;2329.60;;;;;;5012731;28;20030;-78
2021/09/11 02:00:44;;;;;;;8.70;5.93;;;359.10;2329.60;;;;;;5012733;28;20034;-78
2021/09/11 02:03:10;;;;;;;9.02;5.65;;;358.90;2329.60;;;;;;5012501;28;20037;-79
2021/09/11 02:05:37;;;;;;;11.77;6.60;;;359.10;2329.60;;;;;;5013120;28;20030;-78
2021/09/11 02:08:03;;;;;;;7.63;5.88;;;359.20;2329.60;;;;;;5012484;28;20044;-77
2021/09/11 02:10:29;;;;;;;14.82;7.30;;;384.00;2329.60;;;;;;5012442;28;20156;-78
2021/09/11 02:12:59;;;;;;;11.02;6.63;;;384.00;2329.60;;;;;;5012856;28;20175;-78
2021/09/11 02:15:28;;;;;;;9.90;6.10;;;359.20;2329.60;;;;;;5012438;28;20037;-81
2021/09/11 02:17:54;;;;;;;12.75;6.35;;;359.00;2329.60;;;;;;5012292;28;20117;-78
2021/09/11 02:20:21;;;;;;;8.98;5.45;;;359.00;2329.60;;;;;;5012080;28;20168;-79
2021/09/11 02:22:49;;;;;;;13.93;5.78;;;359.00;2329.60;;;;;;5012168;28;20121;-78
2021/09/11 02:25:15;;;;;;;10.77;5.82;;;359.00;2329.60;;;;;;5012111;28;20082;-79
2021/09/11 02:27:42;;;;;;;10.27;5.90;;;359.00;2329.60;;;;;;5012618;28;20081;-79
2021/09/11 02:30:09;;;;;;;13.55;7.18;;;358.80;2329.60;;;;;;5011787;28;20153;-79
2021/09/11 02:32:35;;;;;;;8.77;6.10;;;358.90;2329.60;;;;;;5011061;28;20034;-79
2021/09/11 02:35:05;;;;;;;8.20;6.38;;;359.10;2329.60;;;;;;5011108;28;20060;-78
2021/09/11 02:37:31;;;;;;;9.43;5.70;;;358.50;2329.60;;;;;;5011134;28;20030;-80
2021/09/11 02:39:57;;;;;;;12.10;6.20;;;333.70;2329.60;;;;;;5010608;28;20432;-78
2021/09/11 02:42:23;;;;;;;10.68;5.97;;;358.60;2329.60;;;;;;5011563;28;20082;-79
2021/09/11 02:44:50;;;;;;;10.40;6.28;;;358.50;2329.60;;;;;;5011591;28;20033;-80
2021/09/11 02:47:16;;;;;;;8.50;5.75;;;358.50;2329.60;;;;;;5011915;28;20100;-78
2021/09/11 02:49:42;;;;;;;10.98;5.97;;;358.50;2329.60;;;;;;5010934;28;20436;-79
2021/09/11 02:52:08;;;;;;;14.55;6.47;;;333.60;2329.60;;;;;;5010732;28;20032;-79
2021/09/11 02:54:34;;;;;;;9.57;6.13;;;333.40;2329.60;;;;;;5011384;28;20049;-82
2021/09/11 02:57:00;;;;;;;11.07;6.07;;;333.70;2329.60;;;;;;5011475;28;20461;-80
2021/09/11 02:59:26;;;;;;;15.30;6.70;;;333.70;2329.60;;;;;;5011100;28;20030;-79
2021/09/11 03:01:51;;;;;;;9.57;6.07;;;358.40;2329.60;;;;;;5011321;28;20026;-80
2021/09/11 03:04:17;;;;;;;12.93;6.90;;;333.70;2329.60;;;;;;5012993;28;20137;-80
2021/09/11 03:06:43;;;;;;;9.75;5.78;;;333.40;2329.60;;;;;;5014438;28;20037;-80
2021/09/11 03:09:09;;;;;;;12.98;6.40;;;333.50;2329.60;;;;;;5014773;28;20058;-80
2021/09/11 03:11:35;;;;;;;10.55;5.95;;;333.50;2329.60;;;;;;5014613;28;20026;-79
2021/09/11 03:14:01;;;;;;;9.30;6.10;;;333.40;2329.60;;;;;;5014310;28;20433;-80
2021/09/11 03:16:33;;;;;;;15.32;7.00;;;333.40;2329.60;;;;;;5014601;28;20026;-81
2021/09/11 03:18:59;;;;;;;11.20;6.78;;;333.60;2329.60;;;;;;5014527;28;20026;-79
2021/09/11 03:21:25;;;;;;;13.18;7.00;;;358.40;2329.60;;;;;;5014214;28;20049;-79
2021/09/11 03:23:51;;;;;;;14.20;7.53;;;333.50;2329.60;;;;;;5014397;28;20477;-79
2021/09/11 03:26:17;;;;;;;13.00;6.20;;;333.30;2329.60;;;;;;5014345;28;20026;-79
2021/09/11 03:28:43;;;;;;;10.18;6.22;;;333.30;2329.60;;;;;;5014115;28;20056;-78
2021/09/11 03:31:09;;;;;;;15.95;8.02;;;333.60;2329.60;;;;;;4954294;28;1350724;-81
2021/09/11 03:33:35;;;;;;;10.70;6.53;;;333.50;2329.60;;;;;;5015646;28;20061;-81
2021/09/11 03:36:04;;;;;;;8.02;6.00;;;333.70;2329.60;;;;;;5015129;28;20528;-81
2021/09/11 03:38:33;;;;;;;10.55;6.38;;;333.70;2329.60;;;;;;5015555;28;20128;-81
2021/09/11 03:41:08;;;;;;;13.40;5.72;;;333.60;2329.60;;;;;;5014930;28;20034;-78
2021/09/11 03:43:34;;;;;;;9.95;5.13;;;333.50;2329.60;;;;;;5015371;28;20099;-80
2021/09/11 03:46:03;;;;;;;12.57;6.10;;;333.60;2329.60;;;;;;5015243;28;20482;-80
2021/09/11 03:48:28;;;;;;;10.50;5.88;;;333.70;2329.60;;;;;;5015009;28;20060;-80
2021/09/11 03:50:55;;;;;;;10.93;5.15;;;358.40;2329.60;;;;;;5015124;28;20439;-80
2021/09/11 03:53:24;;;;;;;10.93;5.30;;;333.70;2329.60;;;;;;5015219;28;20053;-81
2021/09/11 03:55:50;;;;;;;9.60;5.47;;;333.70;2329.60;;;;;;5014820;28;20417;-82
2021/09/11 03:58:16;;;;;;;7.93;5.28;;;358.40;2329.60;;;;;;5015023;28;20036;-80
2021/09/11 04:00:42;;;;;;;12.35;5.60;;;358.50;2329.60;;;;;;5014856;28;20474;-79
2021/09/11 04:03:08;;;;;;;9.90;5.80;;;358.50;2329.60;;;;;;5014608;28;20128;-80
2021/09/11 04:05:34;;;;;;;10.00;5.72;;;358.50;2329.60;;;;;;5014906;28;20120;-79
2021/09/11 04:08:00;;;;;;;9.07;5.72;;;358.50;2329.60;;;;;;5014796;28;20417;-80
2021/09/11 04:10:26;;;;;;;10.70;5.30;;;358.50;2329.60;;;;;;5014555;28;20026;-78
2021/09/11 04:12:52;;;;;;;14.35;5.93;;;333.70;2329.60;;;;;;5014739;28;20109;-81
2021/09/11 04:15:18;;;;;;;9.82;5.80;;;358.40;2329.60;;;;;;5013605;28;20103;-80
2021/09/11 04:17:44;;;;;;;9.77;5.50;;;358.50;2329.60;;;;;;5014428;28;20034;-78
2021/09/11 04:20:11;;;;;;;13.90;6.60;;;358.40;2329.60;;;;;;5014580;28;20588;-80
2021/09/11 04:22:36;;;;;;;14.65;6.50;;;333.40;2329.60;;;;;;5014597;28;20381;-77
2021/09/11 04:25:03;;;;;;;8.70;5.95;;;333.50;2329.60;;;;;;5014164;28;20022;-80
2021/09/11 04:27:29;;;;;;;15.15;5.80;;;333.60;2329.60;;;;;;5014439;28;20076;-80
2021/09/11 04:29:55;;;;;;;13.27;5.88;;;333.50;2329.60;;;;;;5015485;28;20045;-79
2021/09/11 04:32:21;;;;;;;13.85;5.78;;;333.60;2329.60;;;;;;5014275;28;20045;-79
2021/09/11 04:34:47;;;;;;;11.88;6.55;;;333.50;2329.60;;;;;;5014331;28;20053;-79
2021/09/11 04:37:13;;;;;;;18.60;6.68;;;333.50;2329.60;;;;;;5014110;28;20080;-79
2021/09/11 04:39:39;;;;;;;11.35;6.47;;;333.20;2329.60;;;;;;5014113;28;20501;-79
2021/09/11 04:42:07;;;;;;;12.98;6.38;;;333.10;2329.60;;;;;;5013918;28;20036;-79
2021/09/11 04:44:33;;;;;;;11.75;7.55;;;333.20;2329.60;;;;;;5013786;28;20029;-80
2021/09/11 04:46:59;;;;;;;11.65;7.80;;;333.30;2329.60;;;;;;5014062;28;20025;-80
2021/09/11 04:49:25;;;;;;;11.48;7.55;;;333.40;2329.60;;;;;;5014166;28;20029;-79
2021/09/11 04:51:51;;;;;;;12.25;7.38;;;333.40;2329.60;;;;;;5013738;28;20052;-82
2021/09/11 04:54:17;;;;;;;14.77;7.38;;;332.90;2329.60;;;;;;5013938;28;20362;-81
2021/09/11 04:56:43;;;;;;;12.82;6.55;;;333.20;2329.60;;;;;;5013899;28;20211;-81
2021/09/11 04:59:12;;;;;;;13.82;6.75;;;333.20;2329.60;;;;;;5013430;28;20022;-79
2021/09/11 05:01:37;;;;;;;18.33;7.97;;;333.10;2329.60;;;;;;5013895;28;20026;-80
2021/09/11 05:04:04;;;;;;;12.35;6.43;;;333.00;2329.60;;;;;;5013852;28;20386;-80
2021/09/11 05:06:30;;;;;;;13.50;7.03;;;333.10;2329.60;;;;;;5014835;28;20100;-79
2021/09/11 05:08:56;;;;;;;12.68;7.88;;;332.80;2329.60;;;;;;5013704;28;20484;-81
2021/09/11 05:11:22;;;;;;;15.57;7.88;;;333.00;2329.60;;;;;;5013865;28;20104;-82
2021/09/11 05:13:48;;;;;;;11.32;7.00;;;333.20;2329.60;;;;;;5013132;28;20034;-81
2021/09/11 05:16:14;;;;;;;12.82;7.30;;;333.30;2329.60;;;;;;5013561;28;20025;-78
2021/09/11 05:18:41;;;;;;;15.20;7.22;;;333.40;2329.60;;;;;;5013812;28;20029;-79
2021/09/11 05:21:07;;;;;;;11.20;6.97;;;333.30;2329.60;;;;;;5013063;28;20470;-78
2021/09/11 05:23:34;;;;;;;10.57;6.50;;;333.20;2329.60;;;;;;5013353;28;20036;-80
2021/09/11 05:26:04;;;;;;;16.65;7.05;;;333.20;2329.60;;;;;;5012993;28;20470;-79
2021/09/11 05:28:33;;;;;;;9.30;5.93;;;333.40;2329.60;;;;;;5013354;28;20033;-80
2021/09/11 05:30:59;;;;;;;12.48;7.35;;;333.50;2329.60;;;;;;5013295;28;20053;-77
2021/09/11 05:33:25;;;;;;;9.98;7.35;;;333.60;2329.60;;;;;;5013085;28;20025;-80
2021/09/11 05:35:52;;;;;;;16.13;8.30;;;333.60;2329.60;;;;;;5013290;28;20037;-79
2021/09/11 05:38:18;;;;;;;13.65;7.60;;;333.40;2329.60;;;;;;5013327;28;20061;-80
2021/09/11 05:40:44;;;;;;;13.63;6.72;;;358.70;2329.60;;;;;;5012707;28;20068;-80
2021/09/11 05:43:10;;;;;;;12.18;7.38;;;333.60;2329.60;;;;;;5013234;28;20034;-80
2021/09/11 05:45:36;;;;;;;13.43;6.88;;;333.70;2329.60;;;;;;5013035;28;20382;-81
2021/09/11 05:48:06;;;;;;;13.10;6.25;;;358.50;2329.60;;;;;;5012815;28;20029;-80
2021/09/11 05:50:32;;;;;;;12.25;6.65;;;358.50;2329.60;;;;;;5013042;28;20476;-78
2021/09/11 05:52:58;;;;;;;11.70;6.32;;;358.60;2329.60;;;;;;5012985;28;20044;-79
2021/09/11 05:55:26;;;;;;;12.63;7.22;;;358.60;2329.60;;;;;;5012687;28;20033;-81
2021/09/11 05:57:52;;;;;;;16.23;9.18;;;358.70;2329.60;;;;;;5014456;28;20034;-81
2021/09/11 06:00:18;;;;;;;14.10;7.00;;;358.80;2329.60;;;;;;5012838;28;20040;-82
2021/09/11 06:02:44;;;;;;;13.10;6.47;;;358.70;2329.60;;;;;;5012762;28;20048;-80
2021/09/11 06:05:11;;;;;;;12.90;6.32;;;358.70;2329.60;;;;;;5012990;28;20466;-80
2021/09/11 06:07:37;;;;;;;11.30;6.43;;;358.80;2329.60;;;;;;5013021;28;20037;-79
2021/09/11 06:10:04;;;;;;;11.95;5.93;;;358.80;2329.60;;;;;;5012498;28;20087;-79
2021/09/11 06:12:33;;;;;;;15.63;6.63;;;358.80;2329.60;;;;;;5013401;28;20477;-79
2021/09/11 06:14:59;;;;;;;13.57;5.88;;;359.00;2329.60;;;;;;5012472;28;20022;-81
2021/09/11 06:17:25;;;;;;;12.75;6.35;;;359.10;2329.60;;;;;;5012623;28;20026;-80
2021/09/11 06:19:51;;;;;;;12.07;6.10;;;359.10;2329.60;;;;;;5012301;28;20076;-81
2021/09/11 06:22:17;;;;;;;17.42;7.72;;;359.30;2329.60;;;;;;5011741;28;20484;-81
2021/09/11 06:24:43;;;;;;;19.17;6.93;;;384.10;2329.60;;;;;;5012262;28;20045;-80
2021/09/11 06:27:13;;;;;;;10.20;5.45;;;384.30;2329.60;;;;;;5013353;28;20026;-77
2021/09/11 06:29:39;;;;;;;14.73;6.30;;;384.40;2329.60;;;;;;5011834;28;20133;-78
2021/09/11 06:32:06;;;;;;;13.75;7.10;;;384.50;2329.60;;;;;;5012443;28;20030;-81
2021/09/11 06:34:32;;;;;;;12.50;6.70;;;384.40;2329.60;;;;;;5011965;28;20501;-77
2021/09/11 06:36:58;;;;;;;14.85;6.28;;;384.70;2329.60;;;;;;5011681;28;20029;-80
2021/09/11 06:39:25;;;;;;;13.50;6.30;;;384.80;2329.60;;;;;;5014141;28;20026;-78
2021/09/11 06:41:52;;;;;;;12.82;6.65;;;384.90;2329.60;;;;;;5016092;28;20037;-79
2021/09/11 06:44:18;;;;;;;14.07;6.45;;;409.70;2355.20;;;;;;5016010;28;20107;-78
2021/09/11 06:46:43;;;;;;;14.52;6.47;;;409.90;2355.20;;;;;;5016321;28;20030;-77
2021/09/11 06:49:09;;;;;;;12.27;5.85;;;409.90;2355.20;;;;;;5015799;28;20049;-80
2021/09/11 06:51:35;;;;;;;12.00;7.05;;;409.90;2355.20;;;;;;5015392;28;20030;-77
2021/09/11 06:54:01;;;;;;;10.05;6.57;;;410.10;2355.20;;;;;;5016563;28;20036;-79
2021/09/11 06:56:27;;;;;;;12.30;7.13;;;410.20;2355.20;;;;;;5015980;28;20377;-77
2021/09/11 06:58:53;;;;;;;12.65;7.13;;;410.40;2355.20;;;;;;5015857;28;20053;-78
2021/09/11 07:01:21;;;;;;;11.98;5.43;;;410.50;2355.20;;;;;;5016085;28;20040;-81
2021/09/11 07:03:47;;;;;;;11.68;6.80;;;435.20;2355.20;;;;;;5015818;28;20080;-78
2021/09/11 07:06:13;;;;;;;13.40;5.45;;;435.30;2355.20;;;;;;5016714;28;20034;-78
2021/09/11 07:08:39;;;;;;;11.35;5.03;;;435.50;2355.20;;;;;;5015956;28;20116;-81
2021/09/11 07:11:12;;;;;;;8.55;4.78;;;435.60;2355.20;;;;;;5015848;28;20037;-81
2021/09/11 07:13:39;;;;;;;15.38;6.13;;;435.70;2355.20;;;;;;5017642;28;20382;-80
2021/09/11 07:16:05;;;;;;;14.80;7.68;;;435.80;2355.20;;;;;;5017207;28;20033;-80
2021/09/11 07:18:32;;;;;;;10.90;6.05;;;435.90;2355.20;;;;;;5015742;28;20026;-80
2021/09/11 07:20:59;;;;;;;12.23;5.97;;;436.00;2355.20;;;;;;5015833;28;20030;-79
2021/09/11 07:23:25;;;;;;;18.38;7.80;;;460.80;2380.80;;;;;;5015751;28;20049;-80
2021/09/11 07:25:51;;;;;;;11.27;6.05;;;461.10;2380.80;;;;;;5015545;28;20022;-78
2021/09/11 07:28:17;;;;;;;10.57;5.75;;;461.10;2380.80;;;;;;5014551;28;20026;-79
2021/09/11 07:30:43;;;;;;;12.90;6.28;;;461.30;2380.80;;;;;;5014943;28;20054;-78
2021/09/11 07:33:08;;;;;;;16.30;8.15;;;461.40;2380.80;;;;;;5015338;28;20030;-79
2021/09/11 07:35:34;;;;;;;13.32;6.75;;;461.60;2380.80;;;;;;5014549;28;20096;-79
2021/09/11 07:38:00;;;;;;;11.07;6.57;;;461.70;2380.80;;;;;;5016894;28;20033;-79
2021/09/11 07:40:26;;;;;;;13.00;6.05;;;486.40;2380.80;;;;;;5016292;28;20108;-81
2021/09/11 07:42:52;;;;;;;19.38;6.85;;;486.50;2380.80;;;;;;5015541;28;20064;-80
2021/09/11 07:45:18;;;;;;;14.98;6.30;;;486.50;2380.80;;;;;;5016507;28;20026;-79
2021/09/11 07:47:44;;;;;;;13.90;6.45;;;486.60;2380.80;;;;;;5014974;28;20029;-79
2021/09/11 07:50:13;;;;;;;12.65;7.03;;;486.70;2380.80;;;;;;5016191;28;20041;-80
2021/09/11 07:52:39;;;;;;;13.80;6.53;;;486.90;2380.80;;;;;;5015121;28;20470;-77
2021/09/11 07:55:07;;;;;;;15.95;8.07;;;487.10;2380.80;;;;;;5014596;28;20030;-79
2021/09/11 07:57:33;;;;;;;13.93;6.95;;;487.30;2380.80;;;;;;5014943;28;20497;-78
2021/09/11 07:59:58;;;;;;;22.70;7.60;;;487.30;2380.80;;;;;;5014704;28;20026;-77
2021/09/11 08:02:24;;;;;;;15.45;8.60;;;512.30;2380.80;;;;;;5014933;28;20041;-77
2021/09/11 08:04:50;;;;;;;12.02;7.90;;;512.30;2380.80;;;;;;5016048;28;20108;-77
2021/09/11 08:07:16;;;;;;;22.20;8.23;;;512.30;2380.80;;;;;;5014593;28;20025;-78
2021/09/11 08:09:42;;;;;;;11.00;7.68;;;512.30;2329.60;;;;;;5014822;28;20030;-78
2021/09/11 08:12:08;;;;;;;11.68;8.57;;;512.50;2329.60;;;;;;5015889;28;20041;-78
2021/09/11 08:14:34;;;;;;;12.85;7.95;;;512.60;2304.00;;;;;;5014485;28;20034;-77
2021/09/11 08:17:01;;;;;;;15.25;8.43;;;512.80;2278.40;;;;;;5014904;28;20125;-78
2021/09/11 08:19:27;;;;;;;17.92;8.25;;;512.90;2304.00;;;;;;5014843;28;20026;-76
2021/09/11 08:21:52;;;;;;;10.48;6.22;;;537.60;2278.40;;;;;;5014273;28;20030;-78
2021/09/11 08:24:18;;;;;;;13.40;6.57;;;537.60;2252.80;;;;;;5015816;28;20025;-77
2021/09/11 08:26:44;;;;;;;13.05;6.50;;;537.70;2252.80;;;;;;5014504;28;20033;-75
2021/09/11 08:29:10;;;;;;;11.80;6.07;;;537.80;2227.20;;;;;;5015431;28;20455;-77
2021/09/11 08:31:35;;;;;;;12.70;6.13;;;538.00;2227.20;;;;;;5014336;28;20088;-77
2021/09/11 08:34:01;;;;;;;8.93;5.25;;;538.00;2227.20;;;;;;5014434;28;20069;-78
2021/09/11 08:36:27;;;;;;;8.02;5.25;;;538.00;2201.60;;;;;;5015582;28;20029;-78
2021/09/11 08:38:53;;;;;;;11.35;5.30;;;538.30;2176.00;;;;;;5014018;28;20061;-77
2021/09/11 08:41:19;;;;;;;10.63;5.40;;;538.40;2176.00;;;;;;5014235;28;20037;-78
2021/09/11 08:43:45;;;;;;;7.75;4.72;;;563.20;2201.60;;;;;;5013734;28;20030;-76
2021/09/11 08:46:10;;;;;;;9.02;4.78;;;563.30;2176.00;;;;;;5013865;28;20136;-77
2021/09/11 08:48:36;;;;;;;9.82;4.35;;;563.40;2176.00;;;;;;5015395;28;20032;-77
2021/09/11 08:51:02;;;;;;;9.55;5.28;;;563.40;2124.80;;;;;;5014002;28;20466;-76
2021/09/11 08:53:28;;;;;;;11.23;6.20;;;563.50;2124.80;;;;;;5013483;28;20026;-74
2021/09/11 08:55:54;;;;;;;11.48;4.55;;;563.60;2150.40;;;;;;5015179;28;20449;-77
2021/09/11 08:58:21;;;;;;;9.27;4.55;;;563.60;2124.80;;;;;;5013515;28;20033;-75
2021/09/11 09:00:58;;;;;;;10.23;4.57;;;563.70;2099.20;;;;;;5014539;28;20033;-76
2021/09/11 09:03:26;;;;;;;11.00;5.50;;;563.80;2099.20;;;;;;5014632;28;20088;-74
2021/09/11 09:05:53;;;;;;;10.48;5.15;;;563.90;2099.20;;;;;;5013925;28;20080;-74
2021/09/11 09:08:28;;;;;;;12.68;5.28;;;563.60;2099.20;;;;;;5014782;28;20053;-74
2021/09/11 09:10:55;;;;;;;7.28;5.10;;;588.80;2073.60;;;;;;5013662;28;20068;-75
2021/09/11 09:13:21;;;;;;;13.65;5.50;;;588.90;2073.60;;;;;;5014091;28;20030;-76
2021/09/11 09:15:49;;;;;;;17.35;7.93;;;589.10;2073.60;;;;;;5013315;28;20413;-77
2021/09/11 09:18:16;;;;;;;13.75;7.50;;;589.40;2022.40;;;;;;5013832;28;20080;-75
2021/09/11 09:20:42;;;;;;;11.80;5.88;;;589.60;2022.40;;;;;;5014376;28;20095;-76
2021/09/11 09:23:16;;;;;;;11.48;6.07;;;589.70;1971.20;;;;;;5014547;28;20544;-76
2021/09/11 09:25:42;;;;;;;12.50;6.40;;;589.70;1971.20;;;;;;5013597;28;20385;-76
2021/09/11 09:28:10;;;;;;;10.75;6.78;;;614.50;1996.80;;;;;;5012751;28;20026;-77
2021/09/11 09:30:45;;;;;;;9.30;6.03;;;614.70;1971.20;;;;;;5013040;28;20053;-75
2021/09/11 09:33:22;;;;;;;12.10;6.07;;;614.80;1920.00;;;;;;5013249;28;20034;-75
2021/09/11 09:35:50;;;;;;;12.40;6.03;;;614.80;1894.40;;;;;;5013088;28;20029;-75
2021/09/11 09:38:16;;;;;;;12.82;5.32;;;614.80;1894.40;;;;;;5012233;28;20108;-78
2021/09/11 09:40:47;;;;;;;13.38;6.57;;;614.80;1894.40;;;;;;5014172;28;20040;-75
2021/09/11 09:43:28;;;;;;;21.83;7.27;;;614.90;1843.20;;;;;;5013363;28;20045;-77
2021/09/11 09:46:15;;;;;;;13.10;5.35;;;615.00;1817.60;;;;;;5013048;28;20271;-77
2021/09/11 09:48:43;;;;;;;13.75;6.60;;;615.20;1817.60;;;;;;5045743;28;20395;-76
2021/09/11 09:51:11;;;;;;;22.17;8.02;;;615.20;1792.00;;;;;;5012778;28;20074;-76
2021/09/11 09:53:39;;;;;;;12.38;6.57;;;640.00;1792.00;;;;;;5012883;28;20473;-78
2021/09/11 09:56:05;;;;;;;13.32;6.72;;;640.20;1740.80;;;;;;5012328;28;20045;-77
2021/09/11 09:58:32;;;;;;;9.90;3.80;;;640.40;1740.80;;;;;;5012851;28;20025;-77
2021/09/11 10:00:58;;;;;;;10.05;5.53;;;640.70;1638.40;;;;;;5012137;28;20034;-75
2021/09/11 10:03:24;;;;;;;12.70;5.10;;;640.70;1612.80;;;;;;5012453;28;20061;-75
2021/09/11 10:05:55;;;;;;;7.80;4.30;;;640.90;1638.40;;;;;;5012433;28;20152;-75
2021/09/11 10:08:21;;;;;;;11.18;6.07;;;665.80;1664.00;;;;;;5013172;28;20026;-74
2021/09/11 10:10:49;;;;;;;6.82;4.50;;;665.90;1638.40;;;;;;5011927;28;20033;-75
2021/09/11 10:13:23;;;;;;;10.60;4.45;;;666.00;1638.40;;;;;;5013047;28;20033;-75
2021/09/11 10:15:59;;;;;;;12.82;5.85;;;666.20;1638.40;;;;;;5012640;28;20061;-75
2021/09/11 10:18:34;;;;;;;14.70;6.65;;;;;;;;;;5013756;28;20105;-76
2021/09/11 10:21:14;;;;;;;14.93;6.00;;;666.50;1612.80;;;;;;5012545;28;20022;-75
2021/09/11 10:23:55;;;;;;;17.23;5.78;;;691.40;1561.60;;;;;;5012270;28;20124;-75
2021/09/11 10:26:54;;;;;;;9.75;5.82;;;691.60;1561.60;;;;;;5013706;28;20033;-76
2021/09/11 10:29:35;;;;;;;13.07;5.00;;;691.80;1536.00;;;;;;5012297;28;20061;-75
2021/09/11 10:32:08;;;;;;;16.75;7.95;;;692.00;1561.60;;;;;;5013429;28;20022;-74
2021/09/11 10:34:46;;;;;;;10.98;4.22;;;716.80;1561.60;;;;;;5012424;28;20079;-74
2021/09/11 10:37:33;;;;;;;8.50;4.10;;;692.00;1484.80;;;;;;5012693;28;20033;-75
2021/09/11 10:40:17;;;;;;;8.77;4.22;;;716.90;1484.80;;;;;;5011548;28;20539;-74
2021/09/11 10:43:05;;;;;;;10.15;4.82;;;716.80;1484.80;;;;;;5013886;28;20173;-75
2021/09/11 10:45:44;;;;;;;7.32;4.25;;;717.20;1459.20;;;;;;5012144;28;20056;-75
2021/09/11 10:48:32;;;;;;;7.32;4.18;;;717.30;1433.60;;;;;;5012448;28;20378;-76
2021/09/11 10:51:13;;;;;;;7.32;3.90;;;717.70;1484.80;;;;;;5012533;28;20037;-75
2021/09/11 10:53:39;;;;;;;8.85;4.63;;;742.40;1459.20;;;;;;5012186;28;20071;-76
2021/09/11 10:56:28;;;;;;;7.93;3.78;;;742.50;1433.60;;;;;;5013804;28;20033;-76
2021/09/11 10:59:15;;;;;;;12.07;4.40;;;742.60;1408.00;;;;;;5013291;28;20437;-76
2021/09/11 11:01:56;;;;;;;5.47;3.28;;;742.80;1433.60;;;;;;5013537;28;20049;-74
2021/09/11 11:04:31;;;;;;;8.20;4.28;;;743.00;1408.00;;;;;;5012311;28;20512;-75
2021/09/11 11:06:59;;;;;;;9.40;4.22;;;743.30;1408.00;;;;;;5012102;28;20029;-75
2021/09/11 11:09:26;;;;;;;9.00;4.13;;;768.10;1408.00;;;;;;5012144;28;20485;-75
2021/09/11 11:11:54;;;;;;;6.70;3.20;;;768.50;1382.40;;;;;;5012247;28;20033;-75
2021/09/11 11:14:20;;;;;;;10.73;4.60;;;768.30;1356.80;;;;;;5011833;28;20505;-75
2021/09/11 11:16:52;;;;;;;8.02;4.20;;;768.60;1356.80;;;;;;5012015;28;20033;-74
2021/09/11 11:19:19;;;;;;;8.32;3.40;;;793.70;1356.80;;;;;;5013070;28;20474;-76
2021/09/11 11:22:24;;;;;;;8.40;5.25;;;793.70;1305.60;;;;;;5011689;28;20030;-75
2021/09/11 11:24:50;;;;;;;13.00;5.07;;;794.20;1331.20;;;;;;4999128;28;20034;-75
2021/09/11 11:27:23;;;;;;;7.32;4.28;;;794.30;1331.20;;;;;;5015867;28;20030;-75
2021/09/11 11:29:50;;;;;;;9.43;3.72;;;794.50;1305.60;;;;;;5016947;28;20050;-75
2021/09/11 11:32:20;;;;;;;13.07;5.00;;;794.40;1305.60;;;;;;5016510;28;20026;-75
2021/09/11 11:34:50;;;;;;;7.38;3.60;;;819.20;1305.60;;;;;;5016456;28;20022;-75
2021/09/11 11:37:15;;;;;;;8.63;3.50;;;819.20;1305.60;;;;;;5017030;28;20576;-75
2021/09/11 11:39:43;;;;;;;6.85;3.55;;;819.40;1305.60;;;;;;5014955;28;20116;-75
2021/09/11 11:42:12;;;;;;;8.07;3.85;;;819.70;1331.20;;;;;;5014867;28;20041;-75
2021/09/11 11:44:43;;;;;;;6.28;3.28;;;819.60;1228.80;;;;;;5015376;28;20470;-77
2021/09/11 11:47:29;;;;;;;6.23;3.37;;;819.60;1228.80;;;;;;5015102;28;20460;-75
2021/09/11 11:49:55;;;;;;;6.10;3.15;;;819.20;1254.40;;;;;;5015235;28;20022;-75
2021/09/11 11:52:23;;;;;;;6.07;3.13;;;819.60;1228.80;;;;;;5015220;28;20026;-76
2021/09/11 11:54:49;;;;;;;6.38;2.85;;;819.70;1203.20;;;;;;5015848;28;20060;-76
2021/09/11 11:57:23;;;;;;;5.25;3.20;;;819.60;1203.20;;;;;;5014912;28;20068;-75
2021/09/11 12:00:00;;;;;;;6.95;2.92;;;819.80;1228.80;;;;;;5014867;28;20037;-75
2021/09/11 12:02:29;;;;;;;5.63;3.20;;;820.10;1203.20;;;;;;5015888;28;20037;-75
2021/09/11 12:05:13;;;;;;;8.98;3.53;;;844.80;1228.80;;;;;;5015806;28;20025;-75
2021/09/11 12:07:39;;;;;;;6.63;3.75;;;844.80;1228.80;;;;;;5016429;28;20373;-75
2021/09/11 12:10:14;;;;;;;6.80;2.65;;;844.90;1228.80;;;;;;5015455;28;20478;-75
2021/09/11 12:12:45;;;;;;;8.32;3.25;;;844.90;1152.00;;;;;;5016284;28;20025;-76
2021/09/11 12:15:14;;;;;;;7.45;3.25;;;845.10;1177.60;;;;;;5015713;28;20026;-75